Airfield :
LOGIN :

Register | Disclaimer

   EN    FR    IT 

 










Legend :    VFR   Marginal VFR   IFR   Intensive IFR   Very Intensive IFR
Visi :
Ceiling :
>= 8 km
>= 3000ft
5 to 8 km
1000 to 3000 ft
1500m to 5 km
500 to 1000 ft
800 to 1500m
200 to 500 ft
< 800m
< 200 ft
Symbols :   Thunderstorms  Fog  Heavy snow  Heavy precipitations  Wind > 20 kt
SIGMETs :     Misc.  Thunderstorms  Icing  Turbulence  Mountain Waves  Volcanic Ashes






- Airport Elevation : 538 ft
- IATA code : TNF


LFPN - Toussus Le Noble

CURRENT METAR :
  • 240530Z AUTO 32008KT 9999 FEW009 OVC058 06/05 Q1016

EXPIRED METARs :
  • 240500Z AUTO 33007KT 9999 FEW034 SCT042 OVC052 06/05 Q1016
  • 240430Z AUTO 32008KT 9999 -RA FEW035 BKN048 OVC056 06/05 Q1016
  • 240400Z AUTO 32008KT CAVOK 06/05 Q1016
  • 240330Z AUTO 32007KT 9999 FEW035 BKN044 OVC070 06/05 Q1016
  • 240300Z AUTO 32005KT 9999 BKN034 BKN046 BKN054 06/05 Q1016
  • 240230Z AUTO 32008KT 9999 -RA FEW011/// SCT027/// BKN045/// ///TCU 06/05 Q1016
  • 240130Z AUTO 33009KT 9999 -RA BKN014 BKN029 BKN046 07/05 Q1017
  • 240100Z AUTO 31008KT 9999 FEW035 BKN043 BKN049 07/04 Q1017

TAF TAF LFPN
Valid from the 24 at 06:00 until the 24 at 15:00 UTC


240500Z 2406/2415 32008KT 9999 BKN035
PROB40
TEMPO 2406/2408 BKN008
PROB40
TEMPO 2412/2415 33015G25KT -SHRA
ATIS : +33 1 39 56 54 70



MET'MAP, your aeronautical weather chart ! - Copyright ORBIFLY December 2007 - Disclaimer

ORBIFLY MET'MAP TEAM :

Programming & Development : Alexandra Zaïnal
Original concept : Baudouin d'Aumeries
Technical & hardware support : Manuel Goepfert
Assistance : Marc-Olivier Méhu




SOURCES & CREDITS :

   NOAA